sensor_id;sensor_type;location;lat;lon;timestamp;pressure;altitude;pressure_sealevel;temperature;humidity
80180;BME280;69505;52.134;5.438;2023-09-18T00:00:58;100854.44;;;15.60;100.00
80180;BME280;69505;52.134;5.438;2023-09-18T00:03:25;100841.47;;;15.65;100.00
80180;BME280;69505;52.134;5.438;2023-09-18T00:05:52;100844.97;;;15.66;100.00
80180;BME280;69505;52.134;5.438;2023-09-18T00:08:19;100830.06;;;15.63;100.00
80180;BME280;69505;52.134;5.438;2023-09-18T00:10:51;100822.03;;;15.63;100.00
80180;BME280;69505;52.134;5.438;2023-09-18T00:13:18;100821.03;;;15.64;100.00
80180;BME280;69505;52.134;5.438;2023-09-18T00:15:45;100816.66;;;15.63;100.00
80180;BME280;69505;52.134;5.438;2023-09-18T00:18:14;100811.69;;;15.68;100.00
80180;BME280;69505;52.134;5.438;2023-09-18T00:20:42;100795.25;;;15.63;100.00
80180;BME280;69505;52.134;5.438;2023-09-18T00:23:09;100782.16;;;15.60;100.00
80180;BME280;69505;52.134;5.438;2023-09-18T00:25:36;100785.53;;;15.62;100.00
80180;BME280;69505;52.134;5.438;2023-09-18T00:28:07;100781.72;;;15.65;100.00
80180;BME280;69505;52.134;5.438;2023-09-18T00:30:34;100769.16;;;15.65;100.00
80180;BME280;69505;52.134;5.438;2023-09-18T00:33:02;100779.88;;;15.65;100.00
80180;BME280;69505;52.134;5.438;2023-09-18T00:35:29;100771.53;;;15.68;100.00
80180;BME280;69505;52.134;5.438;2023-09-18T00:37:56;100762.81;;;15.66;100.00
80180;BME280;69505;52.134;5.438;2023-09-18T00:40:22;100757.00;;;15.71;100.00
80180;BME280;69505;52.134;5.438;2023-09-18T00:42:49;100751.13;;;15.67;100.00
80180;BME280;69505;52.134;5.438;2023-09-18T00:45:16;100758.75;;;15.62;100.00
80180;BME280;69505;52.134;5.438;2023-09-18T00:47:42;100758.06;;;15.60;100.00
80180;BME280;69505;52.134;5.438;2023-09-18T00:50:11;100747.19;;;15.61;100.00
80180;BME280;69505;52.134;5.438;2023-09-18T00:52:41;100738.34;;;15.61;100.00
80180;BME280;69505;52.134;5.438;2023-09-18T00:55:08;100727.22;;;15.56;100.00
80180;BME280;69505;52.134;5.438;2023-09-18T00:57:36;100729.63;;;15.59;100.00
80180;BME280;69505;52.134;5.438;2023-09-18T01:00:04;100723.09;;;15.61;100.00
80180;BME280;69505;52.134;5.438;2023-09-18T01:02:32;100715.91;;;15.62;100.00
80180;BME280;69505;52.134;5.438;2023-09-18T01:04:59;100711.03;;;15.57;100.00
80180;BME280;69505;52.134;5.438;2023-09-18T01:07:26;100698.16;;;15.61;100.00
80180;BME280;69505;52.134;5.438;2023-09-18T01:09:55;100687.47;;;15.61;100.00
80180;BME280;69505;52.134;5.438;2023-09-18T01:12:33;100692.81;;;15.61;100.00
80180;BME280;69505;52.134;5.438;2023-09-18T01:15:26;100686.31;;;15.63;100.00
80180;BME280;69505;52.134;5.438;2023-09-18T01:17:56;100677.59;;;15.61;100.00
80180;BME280;69505;52.134;5.438;2023-09-18T01:20:23;100673.75;;;15.64;100.00
80180;BME280;69505;52.134;5.438;2023-09-18T01:22:50;100669.09;;;15.66;100.00
80180;BME280;69505;52.134;5.438;2023-09-18T01:25:16;100661.53;;;15.61;100.00
80180;BME280;69505;52.134;5.438;2023-09-18T01:27:43;100665.22;;;15.60;100.00
80180;BME280;69505;52.134;5.438;2023-09-18T01:30:10;100657.19;;;15.60;100.00
80180;BME280;69505;52.134;5.438;2023-09-18T01:32:38;100646.63;;;15.59;100.00
80180;BME280;69505;52.134;5.438;2023-09-18T01:35:09;100638.25;;;15.62;100.00
80180;BME280;69505;52.134;5.438;2023-09-18T01:37:37;100623.88;;;15.63;100.00
80180;BME280;69505;52.134;5.438;2023-09-18T01:40:05;100617.38;;;15.66;100.00
80180;BME280;69505;52.134;5.438;2023-09-18T01:42:34;100623.56;;;15.66;100.00
80180;BME280;69505;52.134;5.438;2023-09-18T01:45:01;100626.25;;;15.66;100.00
80180;BME280;69505;52.134;5.438;2023-09-18T01:47:29;100623.25;;;15.69;100.00
80180;BME280;69505;52.134;5.438;2023-09-18T01:49:56;100615.63;;;15.74;100.00
80180;BME280;69505;52.134;5.438;2023-09-18T01:52:22;100620.00;;;15.75;100.00
80180;BME280;69505;52.134;5.438;2023-09-18T01:54:49;100621.66;;;15.76;100.00
80180;BME280;69505;52.134;5.438;2023-09-18T01:57:16;100623.03;;;15.80;100.00
80180;BME280;69505;52.134;5.438;2023-09-18T01:59:42;100619.66;;;15.78;100.00
80180;BME280;69505;52.134;5.438;2023-09-18T02:02:10;100618.81;;;15.78;100.00
80180;BME280;69505;52.134;5.438;2023-09-18T02:04:48;100626.03;;;15.77;100.00
80180;BME280;69505;52.134;5.438;2023-09-18T02:07:34;100632.91;;;15.80;100.00
80180;BME280;69505;52.134;5.438;2023-09-18T02:10:02;100632.56;;;15.83;100.00
80180;BME280;69505;52.134;5.438;2023-09-18T02:12:29;100637.78;;;15.85;100.00
80180;BME280;69505;52.134;5.438;2023-09-18T02:14:56;100632.47;;;15.93;100.00
80180;BME280;69505;52.134;5.438;2023-09-18T02:17:25;100635.50;;;15.98;100.00
80180;BME280;69505;52.134;5.438;2023-09-18T02:19:52;100629.16;;;15.99;100.00
80180;BME280;69505;52.134;5.438;2023-09-18T02:22:18;100636.66;;;15.95;100.00
80180;BME280;69505;52.134;5.438;2023-09-18T02:24:45;100634.19;;;15.94;100.00
80180;BME280;69505;52.134;5.438;2023-09-18T02:27:11;100629.13;;;15.91;100.00
80180;BME280;69505;52.134;5.438;2023-09-18T02:29:38;100622.78;;;15.92;100.00
80180;BME280;69505;52.134;5.438;2023-09-18T02:32:05;100628.81;;;15.94;100.00
80180;BME280;69505;52.134;5.438;2023-09-18T02:34:32;100614.75;;;15.92;100.00
80180;BME280;69505;52.134;5.438;2023-09-18T02:37:00;100597.31;;;15.88;100.00
80180;BME280;69505;52.134;5.438;2023-09-18T02:39:26;100585.44;;;15.90;100.00
80180;BME280;69505;52.134;5.438;2023-09-18T02:41:53;100586.25;;;15.91;100.00
80180;BME280;69505;52.134;5.438;2023-09-18T02:44:21;100585.28;;;15.92;100.00
80180;BME280;69505;52.134;5.438;2023-09-18T02:46:47;100583.97;;;15.96;100.00
80180;BME280;69505;52.134;5.438;2023-09-18T02:49:14;100574.22;;;15.95;100.00
80180;BME280;69505;52.134;5.438;2023-09-18T02:51:41;100562.16;;;15.91;100.00
80180;BME280;69505;52.134;5.438;2023-09-18T02:54:07;100564.16;;;15.89;100.00
80180;BME280;69505;52.134;5.438;2023-09-18T02:56:34;100556.44;;;15.86;100.00
80180;BME280;69505;52.134;5.438;2023-09-18T02:59:01;100551.09;;;15.86;100.00
80180;BME280;69505;52.134;5.438;2023-09-18T03:01:27;100539.00;;;15.81;100.00
80180;BME280;69505;52.134;5.438;2023-09-18T03:03:54;100531.66;;;15.83;100.00
80180;BME280;69505;52.134;5.438;2023-09-18T03:06:21;100523.97;;;15.89;100.00
80180;BME280;69505;52.134;5.438;2023-09-18T03:08:48;100521.13;;;15.90;100.00
80180;BME280;69505;52.134;5.438;2023-09-18T03:11:14;100507.59;;;15.92;100.00
80180;BME280;69505;52.134;5.438;2023-09-18T03:13:43;100503.94;;;16.01;100.00
80180;BME280;69505;52.134;5.438;2023-09-18T03:16:12;100497.91;;;15.99;100.00
80180;BME280;69505;52.134;5.438;2023-09-18T03:18:38;100502.09;;;16.01;100.00
80180;BME280;69505;52.134;5.438;2023-09-18T03:21:05;100502.91;;;16.02;100.00
80180;BME280;69505;52.134;5.438;2023-09-18T03:23:32;100498.09;;;16.06;100.00
80180;BME280;69505;52.134;5.438;2023-09-18T03:25:59;100501.28;;;16.09;100.00
80180;BME280;69505;52.134;5.438;2023-09-18T03:28:26;100492.88;;;16.04;100.00
80180;BME280;69505;52.134;5.438;2023-09-18T03:30:52;100477.16;;;16.09;100.00
80180;BME280;69505;52.134;5.438;2023-09-18T03:33:19;100479.50;;;16.12;100.00
80180;BME280;69505;52.134;5.438;2023-09-18T03:35:50;100483.50;;;16.08;100.00
80180;BME280;69505;52.134;5.438;2023-09-18T03:38:17;100493.25;;;16.09;100.00
80180;BME280;69505;52.134;5.438;2023-09-18T03:40:44;100492.41;;;16.09;100.00
80180;BME280;69505;52.134;5.438;2023-09-18T03:43:11;100497.44;;;16.12;100.00
80180;BME280;69505;52.134;5.438;2023-09-18T03:45:40;100498.25;;;16.12;100.00
80180;BME280;69505;52.134;5.438;2023-09-18T03:48:08;100490.59;;;16.17;100.00
80180;BME280;69505;52.134;5.438;2023-09-18T03:50:35;100508.34;;;16.18;100.00
80180;BME280;69505;52.134;5.438;2023-09-18T03:53:02;100515.72;;;16.24;100.00
80180;BME280;69505;52.134;5.438;2023-09-18T03:55:29;100502.16;;;16.26;100.00
80180;BME280;69505;52.134;5.438;2023-09-18T03:57:56;100492.16;;;16.36;100.00
80180;BME280;69505;52.134;5.438;2023-09-18T04:00:23;100485.28;;;16.50;100.00
80180;BME280;69505;52.134;5.438;2023-09-18T04:02:50;100483.94;;;16.46;100.00
80180;BME280;69505;52.134;5.438;2023-09-18T04:05:17;100480.25;;;16.47;100.00
80180;BME280;69505;52.134;5.438;2023-09-18T04:07:44;100465.19;;;16.54;100.00
80180;BME280;69505;52.134;5.438;2023-09-18T04:10:14;100476.75;;;16.55;100.00
80180;BME280;69505;52.134;5.438;2023-09-18T04:12:50;100470.38;;;16.56;100.00
80180;BME280;69505;52.134;5.438;2023-09-18T04:15:19;100473.22;;;16.62;100.00
80180;BME280;69505;52.134;5.438;2023-09-18T04:17:46;100463.00;;;16.66;100.00
80180;BME280;69505;52.134;5.438;2023-09-18T04:20:13;100456.97;;;16.72;100.00
80180;BME280;69505;52.134;5.438;2023-09-18T04:22:44;100447.44;;;16.78;100.00
80180;BME280;69505;52.134;5.438;2023-09-18T04:25:12;100444.44;;;16.81;100.00
80180;BME280;69505;52.134;5.438;2023-09-18T04:27:39;100432.38;;;16.85;100.00
80180;BME280;69505;52.134;5.438;2023-09-18T04:30:08;100432.53;;;16.83;100.00
80180;BME280;69505;52.134;5.438;2023-09-18T04:32:40;100432.38;;;16.85;100.00
80180;BME280;69505;52.134;5.438;2023-09-18T04:35:07;100427.50;;;16.80;100.00
80180;BME280;69505;52.134;5.438;2023-09-18T04:37:37;100420.59;;;16.86;100.00
80180;BME280;69505;52.134;5.438;2023-09-18T04:40:06;100414.75;;;16.82;100.00
80180;BME280;69505;52.134;5.438;2023-09-18T04:42:37;100402.19;;;16.83;100.00
80180;BME280;69505;52.134;5.438;2023-09-18T04:45:04;100394.28;;;16.90;100.00
80180;BME280;69505;52.134;5.438;2023-09-18T04:47:31;100404.34;;;16.88;100.00
80180;BME280;69505;52.134;5.438;2023-09-18T04:49:58;100403.34;;;16.89;100.00
80180;BME280;69505;52.134;5.438;2023-09-18T04:52:25;100390.63;;;16.91;100.00
80180;BME280;69505;52.134;5.438;2023-09-18T04:54:51;100398.97;;;16.88;100.00
80180;BME280;69505;52.134;5.438;2023-09-18T04:57:18;100411.22;;;16.90;100.00
80180;BME280;69505;52.134;5.438;2023-09-18T04:59:45;100449.63;;;16.91;100.00
80180;BME280;69505;52.134;5.438;2023-09-18T05:02:12;100475.59;;;16.98;100.00
80180;BME280;69505;52.134;5.438;2023-09-18T05:04:39;100463.00;;;17.15;100.00
80180;BME280;69505;52.134;5.438;2023-09-18T05:07:06;100450.44;;;17.24;100.00
80180;BME280;69505;52.134;5.438;2023-09-18T05:09:32;100470.50;;;17.36;100.00
80180;BME280;69505;52.134;5.438;2023-09-18T05:12:04;100454.91;;;17.40;100.00
80180;BME280;69505;52.134;5.438;2023-09-18T05:14:30;100435.09;;;17.41;100.00
80180;BME280;69505;52.134;5.438;2023-09-18T05:16:57;100444.97;;;17.40;100.00
80180;BME280;69505;52.134;5.438;2023-09-18T05:19:24;100451.03;;;17.42;100.00
80180;BME280;69505;52.134;5.438;2023-09-18T05:21:50;100444.66;;;17.43;100.00
80180;BME280;69505;52.134;5.438;2023-09-18T05:24:17;100435.94;;;17.41;100.00
80180;BME280;69505;52.134;5.438;2023-09-18T05:26:46;100428.88;;;17.40;100.00
80180;BME280;69505;52.134;5.438;2023-09-18T05:29:13;100428.88;;;17.40;100.00
80180;BME280;69505;52.134;5.438;2023-09-18T05:31:40;100416.47;;;17.39;100.00
80180;BME280;69505;52.134;5.438;2023-09-18T05:34:06;100423.03;;;17.37;100.00
80180;BME280;69505;52.134;5.438;2023-09-18T05:36:33;100444.31;;;17.38;100.00
80180;BME280;69505;52.134;5.438;2023-09-18T05:39:00;100444.16;;;17.40;100.00
80180;BME280;69505;52.134;5.438;2023-09-18T05:41:26;100446.34;;;17.36;100.00
80180;BME280;69505;52.134;5.438;2023-09-18T05:43:56;100444.53;;;17.37;100.00
80180;BME280;69505;52.134;5.438;2023-09-18T05:46:23;100437.28;;;17.37;100.00
80180;BME280;69505;52.134;5.438;2023-09-18T05:48:49;100439.16;;;17.37;100.00
80180;BME280;69505;52.134;5.438;2023-09-18T05:51:17;100449.88;;;17.37;100.00
80180;BME280;69505;52.134;5.438;2023-09-18T05:53:44;100447.38;;;17.35;100.00
80180;BME280;69505;52.134;5.438;2023-09-18T05:56:10;100456.25;;;17.36;100.00
80180;BME280;69505;52.134;5.438;2023-09-18T05:58:37;100447.38;;;17.35;100.00
80180;BME280;69505;52.134;5.438;2023-09-18T06:01:04;100440.81;;;17.38;100.00
80180;BME280;69505;52.134;5.438;2023-09-18T06:03:30;100439.81;;;17.39;100.00
80180;BME280;69505;52.134;5.438;2023-09-18T06:06:03;100443.66;;;17.36;100.00
80180;BME280;69505;52.134;5.438;2023-09-18T06:08:30;100448.34;;;17.34;100.00
80180;BME280;69505;52.134;5.438;2023-09-18T06:10:58;100436.94;;;17.32;100.00
80180;BME280;69505;52.134;5.438;2023-09-18T06:13:25;100433.59;;;17.30;100.00
80180;BME280;69505;52.134;5.438;2023-09-18T06:15:52;100445.38;;;17.29;100.00
80180;BME280;69505;52.134;5.438;2023-09-18T06:18:21;100452.91;;;17.25;100.00
80180;BME280;69505;52.134;5.438;2023-09-18T06:20:49;100456.25;;;17.28;100.00
80180;BME280;69505;52.134;5.438;2023-09-18T06:23:15;100453.06;;;17.32;100.00
80180;BME280;69505;52.134;5.438;2023-09-18T06:25:42;100444.69;;;17.35;100.00
80180;BME280;69505;52.134;5.438;2023-09-18T06:28:09;100443.50;;;17.38;100.00
80180;BME280;69505;52.134;5.438;2023-09-18T06:30:35;100460.28;;;17.40;100.00
80180;BME280;69505;52.134;5.438;2023-09-18T06:33:03;100455.41;;;17.43;100.00
80180;BME280;69505;52.134;5.438;2023-09-18T06:35:32;100451.34;;;17.48;100.00
80180;BME280;69505;52.134;5.438;2023-09-18T06:37:59;100454.72;;;17.50;100.00
80180;BME280;69505;52.134;5.438;2023-09-18T06:40:26;100458.88;;;17.52;100.00
80180;BME280;69505;52.134;5.438;2023-09-18T06:42:58;100452.34;;;17.55;100.00
80180;BME280;69505;52.134;5.438;2023-09-18T06:45:24;100455.69;;;17.57;100.00
80180;BME280;69505;52.134;5.438;2023-09-18T06:47:51;100453.66;;;17.59;100.00
80180;BME280;69505;52.134;5.438;2023-09-18T06:50:19;100456.19;;;17.60;100.00
80180;BME280;69505;52.134;5.438;2023-09-18T06:52:46;100460.38;;;17.63;100.00
80180;BME280;69505;52.134;5.438;2023-09-18T06:55:13;100465.03;;;17.69;100.00
80180;BME280;69505;52.134;5.438;2023-09-18T06:57:40;100460.16;;;17.73;100.00
80180;BME280;69505;52.134;5.438;2023-09-18T07:00:08;100459.97;;;17.82;100.00
80180;BME280;69505;52.134;5.438;2023-09-18T07:02:34;100450.53;;;17.87;100.00
80180;BME280;69505;52.134;5.438;2023-09-18T07:05:01;100457.06;;;17.92;100.00
80180;BME280;69505;52.134;5.438;2023-09-18T07:07:28;100466.97;;;18.00;100.00
80180;BME280;69505;52.134;5.438;2023-09-18T07:09:55;100453.66;;;18.07;100.00
80180;BME280;69505;52.134;5.438;2023-09-18T07:12:24;100461.84;;;18.13;100.00
80180;BME280;69505;52.134;5.438;2023-09-18T07:14:51;100460.31;;;18.19;100.00
80180;BME280;69505;52.134;5.438;2023-09-18T07:17:17;100460.41;;;18.25;100.00
80180;BME280;69505;52.134;5.438;2023-09-18T07:19:44;100473.31;;;18.30;100.00
80180;BME280;69505;52.134;5.438;2023-09-18T07:22:11;100475.19;;;18.30;100.00
80180;BME280;69505;52.134;5.438;2023-09-18T07:24:37;100475.00;;;18.31;100.00
80180;BME280;69505;52.134;5.438;2023-09-18T07:27:07;100467.41;;;18.35;100.00
80180;BME280;69505;52.134;5.438;2023-09-18T07:29:34;100452.78;;;18.37;100.00
80180;BME280;69505;52.134;5.438;2023-09-18T07:32:01;100461.31;;;18.41;100.00
80180;BME280;69505;52.134;5.438;2023-09-18T07:34:28;100461.16;;;18.42;100.00
80180;BME280;69505;52.134;5.438;2023-09-18T07:36:55;100456.44;;;18.44;100.00
80180;BME280;69505;52.134;5.438;2023-09-18T07:39:22;100460.59;;;18.47;100.00
80180;BME280;69505;52.134;5.438;2023-09-18T07:41:49;100452.84;;;18.52;100.00
80180;BME280;69505;52.134;5.438;2023-09-18T07:44:20;100467.63;;;18.56;100.00
80180;BME280;69505;52.134;5.438;2023-09-18T07:46:47;100469.28;;;18.57;100.00
80180;BME280;69505;52.134;5.438;2023-09-18T07:49:14;100467.72;;;18.63;100.00
80180;BME280;69505;52.134;5.438;2023-09-18T07:51:41;100467.19;;;18.67;100.00
80180;BME280;69505;52.134;5.438;2023-09-18T07:54:07;100474.53;;;18.74;100.00
80180;BME280;69505;52.134;5.438;2023-09-18T07:56:34;100459.69;;;18.78;100.00
80180;BME280;69505;52.134;5.438;2023-09-18T07:59:02;100464.50;;;18.91;100.00
80180;BME280;69505;52.134;5.438;2023-09-18T08:01:29;100470.81;;;18.98;100.00
80180;BME280;69505;52.134;5.438;2023-09-18T08:03:58;100472.84;;;18.96;100.00
80180;BME280;69505;52.134;5.438;2023-09-18T08:06:27;100477.78;;;18.92;100.00
80180;BME280;69505;52.134;5.438;2023-09-18T08:08:54;100477.97;;;18.91;100.00
80180;BME280;69505;52.134;5.438;2023-09-18T08:11:22;100476.75;;;18.93;100.00
80180;BME280;69505;52.134;5.438;2023-09-18T08:13:48;100482.06;;;19.01;100.00
80180;BME280;69505;52.134;5.438;2023-09-18T08:16:15;100481.69;;;19.04;100.00
80180;BME280;69505;52.134;5.438;2023-09-18T08:18:43;100477.50;;;19.02;100.00
80180;BME280;69505;52.134;5.438;2023-09-18T08:21:10;100488.28;;;19.02;100.00
80180;BME280;69505;52.134;5.438;2023-09-18T08:23:39;100490.63;;;19.05;100.00
80180;BME280;69505;52.134;5.438;2023-09-18T08:26:06;100490.72;;;19.12;100.00
80180;BME280;69505;52.134;5.438;2023-09-18T08:28:34;100496.94;;;19.12;100.00
80180;BME280;69505;52.134;5.438;2023-09-18T08:31:03;100512.81;;;19.07;100.00
80180;BME280;69505;52.134;5.438;2023-09-18T08:33:30;100502.38;;;19.04;100.00
80180;BME280;69505;52.134;5.438;2023-09-18T08:35:57;100499.81;;;19.11;100.00
80180;BME280;69505;52.134;5.438;2023-09-18T08:38:23;100492.03;;;19.16;100.00
80180;BME280;69505;52.134;5.438;2023-09-18T08:40:53;100496.28;;;19.10;100.00
80180;BME280;69505;52.134;5.438;2023-09-18T08:43:21;100498.97;;;19.10;100.00
80180;BME280;69505;52.134;5.438;2023-09-18T08:45:52;100504.19;;;19.12;100.00
80180;BME280;69505;52.134;5.438;2023-09-18T08:48:21;100507.16;;;19.17;100.00
80180;BME280;69505;52.134;5.438;2023-09-18T08:50:48;100509.41;;;19.28;100.00
80180;BME280;69505;52.134;5.438;2023-09-18T08:53:15;100501.53;;;19.41;100.00
80180;BME280;69505;52.134;5.438;2023-09-18T08:55:43;100518.44;;;20.24;100.00
80180;BME280;69505;52.134;5.438;2023-09-18T08:58:10;100513.44;;;20.79;97.48
80180;BME280;69505;52.134;5.438;2023-09-18T09:00:37;100524.09;;;20.87;94.13
80180;BME280;69505;52.134;5.438;2023-09-18T09:03:04;100519.41;;;20.75;93.89
80180;BME280;69505;52.134;5.438;2023-09-18T09:05:32;100530.88;;;20.77;92.54
80180;BME280;69505;52.134;5.438;2023-09-18T09:07:59;100534.78;;;20.96;91.86
80180;BME280;69505;52.134;5.438;2023-09-18T09:10:26;100539.00;;;21.05;93.38
80180;BME280;69505;52.134;5.438;2023-09-18T09:12:55;100545.97;;;20.56;93.46
80180;BME280;69505;52.134;5.438;2023-09-18T09:15:27;100540.28;;;20.30;95.35
80180;BME280;69505;52.134;5.438;2023-09-18T09:18:05;100555.78;;;20.42;96.74
80180;BME280;69505;52.134;5.438;2023-09-18T09:20:34;100537.97;;;20.26;96.93
80180;BME280;69505;52.134;5.438;2023-09-18T09:23:04;100533.44;;;20.48;97.35
80180;BME280;69505;52.134;5.438;2023-09-18T09:25:32;100535.19;;;20.56;97.10
80180;BME280;69505;52.134;5.438;2023-09-18T09:28:06;100535.50;;;21.96;88.97
80180;BME280;69505;52.134;5.438;2023-09-18T09:30:35;100521.66;;;23.14;84.67
80180;BME280;69505;52.134;5.438;2023-09-18T09:33:05;100535.78;;;23.76;81.67
80180;BME280;69505;52.134;5.438;2023-09-18T09:35:34;100539.56;;;23.55;80.51
80180;BME280;69505;52.134;5.438;2023-09-18T09:38:07;100535.81;;;22.89;83.73
80180;BME280;69505;52.134;5.438;2023-09-18T09:40:36;100538.28;;;22.70;83.65
80180;BME280;69505;52.134;5.438;2023-09-18T09:43:08;100536.38;;;22.03;85.62
80180;BME280;69505;52.134;5.438;2023-09-18T09:45:34;100544.94;;;21.43;89.40
80180;BME280;69505;52.134;5.438;2023-09-18T09:48:05;100555.56;;;21.02;89.86
80180;BME280;69505;52.134;5.438;2023-09-18T09:50:34;100561.19;;;20.79;90.46
80180;BME280;69505;52.134;5.438;2023-09-18T09:53:10;100569.91;;;20.44;89.72
80180;BME280;69505;52.134;5.438;2023-09-18T09:55:37;100571.44;;;20.17;89.00
80180;BME280;69505;52.134;5.438;2023-09-18T09:58:07;100568.94;;;20.01;90.78
80180;BME280;69505;52.134;5.438;2023-09-18T10:00:49;100571.19;;;20.12;90.21
80180;BME280;69505;52.134;5.438;2023-09-18T10:03:19;100576.19;;;20.15;90.20
80180;BME280;69505;52.134;5.438;2023-09-18T10:05:50;100577.25;;;19.99;90.17
80180;BME280;69505;52.134;5.438;2023-09-18T10:08:20;100585.50;;;20.13;93.42
80180;BME280;69505;52.134;5.438;2023-09-18T10:10:49;100580.19;;;20.04;91.46
80180;BME280;69505;52.134;5.438;2023-09-18T10:13:19;100585.59;;;19.90;92.01
80180;BME280;69505;52.134;5.438;2023-09-18T10:15:50;100581.78;;;19.84;91.40
80180;BME280;69505;52.134;5.438;2023-09-18T10:18:32;100577.97;;;20.08;91.44
80180;BME280;69505;52.134;5.438;2023-09-18T10:21:22;100581.13;;;20.26;91.81
80180;BME280;69505;52.134;5.438;2023-09-18T10:27:00;100576.69;;;20.55;90.68
80180;BME280;69505;52.134;5.438;2023-09-18T10:29:30;100570.84;;;20.66;88.76
80180;BME280;69505;52.134;5.438;2023-09-18T10:31:58;100577.59;;;20.77;89.32
80180;BME280;69505;52.134;5.438;2023-09-18T10:34:25;100581.75;;;20.80;87.99
80180;BME280;69505;52.134;5.438;2023-09-18T10:36:54;100592.16;;;20.83;87.27
80180;BME280;69505;52.134;5.438;2023-09-18T10:39:23;100595.72;;;20.83;86.41
80180;BME280;69505;52.134;5.438;2023-09-18T10:41:53;100600.53;;;20.88;89.57
80180;BME280;69505;52.134;5.438;2023-09-18T10:44:20;100601.84;;;20.92;89.13
80180;BME280;69505;52.134;5.438;2023-09-18T10:46:49;100606.75;;;20.67;88.36
80180;BME280;69505;52.134;5.438;2023-09-18T10:49:16;100596.59;;;20.69;91.35
80180;BME280;69505;52.134;5.438;2023-09-18T10:51:43;100600.66;;;20.80;87.59
80180;BME280;69505;52.134;5.438;2023-09-18T10:54:10;100605.91;;;20.66;89.08
80180;BME280;69505;52.134;5.438;2023-09-18T10:56:44;100593.72;;;20.56;89.07
80180;BME280;69505;52.134;5.438;2023-09-18T10:59:11;100588.03;;;20.65;89.82
80180;BME280;69505;52.134;5.438;2023-09-18T11:01:37;100589.91;;;20.50;90.02
80180;BME280;69505;52.134;5.438;2023-09-18T11:04:05;100594.31;;;20.36;91.50
80180;BME280;69505;52.134;5.438;2023-09-18T11:09:23;100597.94;;;20.43;90.20
80180;BME280;69505;52.134;5.438;2023-09-18T11:14:48;100587.47;;;20.55;90.94
80180;BME280;69505;52.134;5.438;2023-09-18T11:17:36;100584.44;;;20.43;88.33
80180;BME280;69505;52.134;5.438;2023-09-18T11:20:04;100583.81;;;20.41;88.92
80180;BME280;69505;52.134;5.438;2023-09-18T11:22:36;100588.16;;;20.42;87.55
80180;BME280;69505;52.134;5.438;2023-09-18T11:25:55;100574.59;;;20.72;88.03
80180;BME280;69505;52.134;5.438;2023-09-18T11:28:24;100576.25;;;20.88;87.02
80180;BME280;69505;52.134;5.438;2023-09-18T11:30:55;100583.03;;;21.05;85.78
80180;BME280;69505;52.134;5.438;2023-09-18T11:33:41;100578.56;;;21.13;89.34
80180;BME280;69505;52.134;5.438;2023-09-18T11:36:28;100573.34;;;21.11;86.45
80180;BME280;69505;52.134;5.438;2023-09-18T11:38:58;100580.09;;;21.00;85.31
80180;BME280;69505;52.134;5.438;2023-09-18T11:41:31;100564.59;;;21.09;87.72
80180;BME280;69505;52.134;5.438;2023-09-18T11:46:45;100571.09;;;20.93;86.65
80180;BME280;69505;52.134;5.438;2023-09-18T11:49:13;100566.72;;;21.14;85.21
80180;BME280;69505;52.134;5.438;2023-09-18T11:51:42;100574.44;;;21.17;85.16
80180;BME280;69505;52.134;5.438;2023-09-18T11:54:09;100568.13;;;21.09;83.74
80180;BME280;69505;52.134;5.438;2023-09-18T11:56:39;100564.75;;;21.51;83.16
80180;BME280;69505;52.134;5.438;2023-09-18T11:59:06;100563.41;;;21.68;80.77
80180;BME280;69505;52.134;5.438;2023-09-18T12:01:33;100573.66;;;21.44;81.70
80180;BME280;69505;52.134;5.438;2023-09-18T12:04:03;100574.94;;;21.48;83.65
80180;BME280;69505;52.134;5.438;2023-09-18T12:06:39;100573.50;;;21.53;83.99
80180;BME280;69505;52.134;5.438;2023-09-18T12:09:07;100574.53;;;21.30;86.05
80180;BME280;69505;52.134;5.438;2023-09-18T12:11:34;100577.75;;;21.40;83.79
80180;BME280;69505;52.134;5.438;2023-09-18T12:14:02;100573.16;;;21.41;83.86
80180;BME280;69505;52.134;5.438;2023-09-18T12:16:37;100570.25;;;21.64;83.88
80180;BME280;69505;52.134;5.438;2023-09-18T12:19:04;100572.97;;;21.99;83.40
80180;BME280;69505;52.134;5.438;2023-09-18T12:21:33;100565.72;;;21.71;81.28
80180;BME280;69505;52.134;5.438;2023-09-18T12:24:06;100574.22;;;21.40;82.36
80180;BME280;69505;52.134;5.438;2023-09-18T12:26:32;100572.94;;;21.36;82.31
80180;BME280;69505;52.134;5.438;2023-09-18T12:28:59;100564.75;;;21.29;80.37
80180;BME280;69505;52.134;5.438;2023-09-18T12:31:26;100562.34;;;21.13;81.26
80180;BME280;69505;52.134;5.438;2023-09-18T12:33:53;100554.19;;;21.56;81.95
80180;BME280;69505;52.134;5.438;2023-09-18T12:36:20;100557.78;;;21.63;80.15
80180;BME280;69505;52.134;5.438;2023-09-18T12:38:56;100569.94;;;21.52;82.81
80180;BME280;69505;52.134;5.438;2023-09-18T12:41:25;100567.97;;;21.39;80.51
80180;BME280;69505;52.134;5.438;2023-09-18T12:43:59;100567.13;;;21.67;79.41
80180;BME280;69505;52.134;5.438;2023-09-18T12:46:25;100562.53;;;21.96;79.86
80180;BME280;69505;52.134;5.438;2023-09-18T12:48:52;100556.88;;;22.25;77.10
80180;BME280;69505;52.134;5.438;2023-09-18T12:51:28;100541.41;;;22.19;78.88
80180;BME280;69505;52.134;5.438;2023-09-18T12:54:02;100542.72;;;22.23;75.58
80180;BME280;69505;52.134;5.438;2023-09-18T12:56:40;100535.66;;;22.29;75.11
80180;BME280;69505;52.134;5.438;2023-09-18T12:59:07;100544.41;;;22.24;74.36
80180;BME280;69505;52.134;5.438;2023-09-18T13:01:46;100539.31;;;22.15;73.24